createdAt,value
2022-08-04T00:00:12.906Z,101059.00
2022-08-04T00:03:13.079Z,101054.00
2022-08-04T00:06:07.411Z,101050.00
2022-08-04T00:09:00.353Z,101061.00
2022-08-04T00:11:31.770Z,101054.00
2022-08-04T00:14:06.214Z,101055.00
2022-08-04T00:16:41.529Z,101043.00
2022-08-04T00:19:19.006Z,101053.00
2022-08-04T00:21:58.906Z,101049.00
2022-08-04T00:24:26.522Z,101057.00
2022-08-04T00:26:56.481Z,101045.00
2022-08-04T00:29:24.361Z,101048.00
2022-08-04T00:31:54.633Z,101061.00
2022-08-04T00:34:27.599Z,101048.00
2022-08-04T00:36:56.614Z,101048.00
2022-08-04T00:39:23.975Z,101043.00
2022-08-04T00:42:58.262Z,101047.00
2022-08-04T00:46:15.472Z,101054.00
2022-08-04T00:49:17.942Z,101053.00
2022-08-04T00:52:32.141Z,101053.00
2022-08-04T00:55:09.061Z,101052.00
2022-08-04T00:58:22.714Z,101050.00
2022-08-04T01:01:03.144Z,101048.00
2022-08-04T01:03:50.852Z,101041.00
2022-08-04T01:06:43.094Z,101038.00
2022-08-04T01:09:53.124Z,101036.00
2022-08-04T01:12:39.311Z,101051.00
2022-08-04T01:15:18.953Z,101041.00
2022-08-04T01:18:07.715Z,101042.00
2022-08-04T01:20:58.403Z,101035.00
2022-08-04T01:23:36.262Z,101042.00
2022-08-04T01:26:57.299Z,101049.00
2022-08-04T01:29:37.019Z,101049.00
2022-08-04T01:32:32.235Z,101049.00
2022-08-04T01:35:22.150Z,101051.00
2022-08-04T01:38:33.771Z,101047.00
2022-08-04T01:41:08.701Z,101041.00
2022-08-04T01:43:41.276Z,101042.00
2022-08-04T01:46:13.995Z,101055.00
2022-08-04T01:48:45.711Z,101043.00
2022-08-04T01:51:14.515Z,101049.00
2022-08-04T01:53:43.938Z,101044.00
2022-08-04T01:56:13.056Z,101046.00
2022-08-04T01:58:41.082Z,101047.00
2022-08-04T02:01:13.230Z,101043.00
2022-08-04T02:04:19.481Z,101045.00
2022-08-04T02:07:09.129Z,101047.00
2022-08-04T02:09:55.323Z,101042.00
2022-08-04T02:12:36.251Z,101045.00
2022-08-04T02:15:11.676Z,101038.00
2022-08-04T02:18:02.588Z,101036.00
2022-08-04T02:20:38.063Z,101039.00
2022-08-04T02:23:15.140Z,101043.00
2022-08-04T02:25:57.879Z,101043.00
2022-08-04T02:28:46.942Z,101036.00
2022-08-04T02:31:31.573Z,101032.00
2022-08-04T02:34:12.786Z,101026.00
2022-08-04T02:36:42.650Z,101023.00
2022-08-04T02:39:12.344Z,101030.00
2022-08-04T02:41:40.766Z,101030.00
2022-08-04T02:44:10.489Z,101032.00
2022-08-04T02:46:39.888Z,101016.00
2022-08-04T02:49:09.899Z,101017.00
2022-08-04T02:51:49.903Z,101016.00
2022-08-04T02:54:32.600Z,101019.00
2022-08-04T02:57:04.449Z,101008.00
2022-08-04T03:00:11.805Z,101009.00
2022-08-04T03:03:01.606Z,101022.00
2022-08-04T03:06:01.658Z,101007.00
2022-08-04T03:08:37.458Z,101010.00
2022-08-04T03:11:39.474Z,101018.00
2022-08-04T03:15:11.282Z,101026.00
2022-08-04T03:18:16.309Z,101024.00
2022-08-04T03:21:37.279Z,101014.00
2022-08-04T03:24:36.550Z,101021.00
2022-08-04T03:27:40.287Z,101022.00
2022-08-04T03:30:16.478Z,101024.00
2022-08-04T03:33:27.248Z,101020.00
2022-08-04T03:36:31.866Z,101016.00
2022-08-04T03:39:32.214Z,101016.00
2022-08-04T03:42:39.216Z,101026.00
2022-08-04T03:45:52.604Z,101026.00
2022-08-04T03:49:00.736Z,101023.00
2022-08-04T03:52:18.697Z,101034.00
2022-08-04T03:55:31.679Z,101021.00
2022-08-04T03:59:00.672Z,101027.00
2022-08-04T04:02:02.510Z,101013.00
2022-08-04T04:05:10.517Z,101023.00
2022-08-04T04:08:18.711Z,101022.00
2022-08-04T04:11:34.739Z,101026.00
2022-08-04T04:15:09.413Z,101018.00
2022-08-04T04:18:09.497Z,101022.00
2022-08-04T04:21:22.002Z,101016.00
2022-08-04T04:24:13.710Z,101013.00
2022-08-04T04:27:36.849Z,101015.00
2022-08-04T04:30:14.821Z,101023.00
2022-08-04T04:33:05.570Z,101024.00
2022-08-04T04:35:48.680Z,101018.00
2022-08-04T04:38:45.464Z,101031.00
2022-08-04T04:41:36.531Z,101029.00
2022-08-04T04:44:42.654Z,101034.00
2022-08-04T04:48:08.581Z,101027.00
2022-08-04T04:50:53.321Z,101032.00
2022-08-04T04:54:00.282Z,101027.00
2022-08-04T04:56:52.934Z,101029.00
2022-08-04T04:59:25.742Z,101026.00
2022-08-04T05:02:51.541Z,101034.00
2022-08-04T05:05:28.258Z,101032.00
2022-08-04T05:08:44.188Z,101035.00
2022-08-04T05:11:33.186Z,101032.00
2022-08-04T05:14:35.369Z,101034.00
2022-08-04T05:17:22.482Z,101029.00
2022-08-04T05:20:01.923Z,101038.00
2022-08-04T05:22:37.760Z,101035.00
2022-08-04T05:25:27.887Z,101032.00
2022-08-04T05:28:20.671Z,101028.00
2022-08-04T05:31:01.605Z,101029.00
2022-08-04T05:33:37.140Z,101036.00
2022-08-04T05:36:23.469Z,101037.00
2022-08-04T05:39:00.019Z,101034.00
2022-08-04T05:41:32.273Z,101028.00
2022-08-04T05:44:16.732Z,101044.00
2022-08-04T05:46:53.747Z,101037.00
2022-08-04T05:49:28.192Z,101039.00
2022-08-04T05:51:59.683Z,101040.00
2022-08-04T05:54:29.364Z,101039.00
2022-08-04T05:56:57.789Z,101040.00
2022-08-04T05:59:27.117Z,101035.00
2022-08-04T06:01:58.389Z,101036.00
2022-08-04T06:04:34.808Z,101035.00
2022-08-04T06:07:01.860Z,101027.00
2022-08-04T06:09:30.014Z,101034.00
2022-08-04T06:12:22.805Z,101032.00
2022-08-04T06:14:59.504Z,101033.00
2022-08-04T06:19:56.723Z,101035.00
2022-08-04T06:20:23.931Z,101044.00
2022-08-04T06:22:57.548Z,101044.00
2022-08-04T06:25:31.138Z,101041.00
2022-08-04T06:28:01.507Z,101048.00
2022-08-04T06:30:32.280Z,101050.00
2022-08-04T06:33:04.980Z,101043.00
2022-08-04T06:35:33.730Z,101051.00
2022-08-04T06:38:03.103Z,101047.00
2022-08-04T06:40:34.058Z,101045.00
2022-08-04T06:43:05.049Z,101055.00
2022-08-04T06:45:34.939Z,101044.00
2022-08-04T06:48:04.965Z,101047.00
2022-08-04T06:51:30.390Z,101043.00
2022-08-04T06:53:22.545Z,101044.00
2022-08-04T06:55:51.899Z,101046.00
2022-08-04T06:58:22.489Z,101038.00
2022-08-04T07:00:52.826Z,101044.00
2022-08-04T07:03:21.812Z,101047.00
2022-08-04T07:05:51.553Z,101042.00
2022-08-04T07:08:19.506Z,101044.00
2022-08-04T07:10:46.889Z,101046.00
2022-08-04T07:13:15.802Z,101044.00
2022-08-04T07:15:46.629Z,101051.00
2022-08-04T07:18:13.766Z,101045.00
2022-08-04T07:20:46.217Z,101043.00
2022-08-04T07:23:20.026Z,101052.00
2022-08-04T07:25:59.532Z,101039.00
2022-08-04T07:28:30.855Z,101039.00
2022-08-04T07:30:58.751Z,101045.00
2022-08-04T07:33:27.312Z,101043.00
2022-08-04T07:36:04.393Z,101039.00
2022-08-04T07:38:37.716Z,101033.00
2022-08-04T07:44:01.781Z,101035.00
2022-08-04T07:46:31.242Z,101036.00
2022-08-04T07:49:01.284Z,101031.00
2022-08-04T07:51:30.661Z,101033.00
2022-08-04T07:53:59.049Z,101027.00
2022-08-04T07:56:27.844Z,101031.00
2022-08-04T07:58:55.856Z,101024.00
2022-08-04T08:01:24.790Z,101030.00
2022-08-04T08:03:56.214Z,101024.00
2022-08-04T08:06:32.804Z,101034.00
2022-08-04T08:09:13.101Z,101028.00
2022-08-04T08:12:36.767Z,101022.00
2022-08-04T08:14:31.698Z,101016.00
2022-08-04T08:17:02.626Z,101016.00
2022-08-04T08:19:34.925Z,101017.00
2022-08-04T08:22:03.470Z,101022.00
2022-08-04T08:24:35.687Z,101019.00
2022-08-04T08:27:07.136Z,101020.00
2022-08-04T08:29:35.620Z,101015.00
2022-08-04T08:32:10.880Z,101015.00
2022-08-04T08:34:38.891Z,101016.00
2022-08-04T08:37:41.960Z,101013.00
2022-08-04T08:40:41.159Z,101012.00
2022-08-04T08:44:05.669Z,101011.00
2022-08-04T08:47:05.214Z,101007.00
2022-08-04T08:50:09.857Z,101014.00
2022-08-04T08:53:11.223Z,101007.00
2022-08-04T08:56:19.615Z,101009.00
2022-08-04T08:59:30.124Z,101015.00
2022-08-04T09:02:45.260Z,101017.00
2022-08-04T09:05:48.825Z,101011.00
2022-08-04T09:09:09.337Z,101011.00
2022-08-04T09:12:09.297Z,101008.00
2022-08-04T09:14:50.278Z,101006.00
2022-08-04T09:17:43.016Z,101008.00
2022-08-04T09:20:25.330Z,101012.00
2022-08-04T09:23:06.780Z,101011.00
2022-08-04T09:26:01.247Z,101013.00
2022-08-04T09:28:58.574Z,101018.00
2022-08-04T09:31:52.992Z,101002.00
2022-08-04T09:35:03.488Z,100998.00
2022-08-04T09:38:11.851Z,101002.00
2022-08-04T09:41:03.712Z,100998.00
2022-08-04T09:44:49.425Z,101006.00
2022-08-04T09:47:39.901Z,101005.00
2022-08-04T09:50:38.994Z,101000.00
2022-08-04T09:53:50.165Z,101002.00
2022-08-04T09:56:39.077Z,101002.00
2022-08-04T09:59:26.998Z,100998.00
2022-08-04T10:01:59.910Z,100995.00
2022-08-04T10:04:32.002Z,100996.00
2022-08-04T10:07:19.594Z,100992.00
2022-08-04T10:10:26.125Z,100987.00
2022-08-04T10:13:26.714Z,100988.00
2022-08-04T10:16:31.972Z,100978.00
2022-08-04T10:19:28.044Z,100987.00
2022-08-04T10:22:28.551Z,100969.00
2022-08-04T10:26:05.341Z,100975.00
2022-08-04T10:28:31.437Z,100965.00
2022-08-04T10:31:07.003Z,100962.00
2022-08-04T10:34:00.309Z,100970.00
2022-08-04T10:36:36.044Z,100967.00
2022-08-04T10:39:12.010Z,100966.00
2022-08-04T10:42:25.177Z,100962.00
2022-08-04T10:45:23.192Z,100964.00
2022-08-04T10:48:05.907Z,100964.00
2022-08-04T10:50:42.629Z,100963.00
2022-08-04T10:53:22.686Z,100959.00
2022-08-04T10:56:07.084Z,100956.00
2022-08-04T10:58:52.955Z,100958.00
2022-08-04T11:02:00.570Z,100951.00
2022-08-04T11:04:31.997Z,100950.00
2022-08-04T11:07:00.731Z,100945.00
2022-08-04T11:09:30.780Z,100940.00
2022-08-04T11:12:17.954Z,100936.00
2022-08-04T11:14:56.569Z,100940.00
2022-08-04T11:17:33.625Z,100934.00
2022-08-04T11:23:17.403Z,100934.00
2022-08-04T11:26:03.781Z,100936.00
2022-08-04T11:29:12.322Z,100933.00
2022-08-04T11:31:51.647Z,100933.00
2022-08-04T11:34:28.057Z,100927.00
2022-08-04T11:37:15.830Z,100931.00
2022-08-04T11:40:01.312Z,100925.00
2022-08-04T11:42:39.356Z,100921.00
2022-08-04T11:45:19.994Z,100921.00
2022-08-04T11:48:00.832Z,100916.00
2022-08-04T11:50:43.315Z,100926.00
2022-08-04T11:53:17.375Z,100932.00
2022-08-04T11:56:07.109Z,100924.00
2022-08-04T11:58:35.786Z,100929.00
2022-08-04T12:01:45.956Z,100918.00
2022-08-04T12:04:28.427Z,100915.00
2022-08-04T12:07:32.478Z,100910.00
2022-08-04T12:10:40.932Z,100912.00
2022-08-04T12:13:22.117Z,100915.00
2022-08-04T12:16:30.351Z,100915.00
2022-08-04T12:19:17.163Z,100915.00
2022-08-04T12:21:55.937Z,100915.00
2022-08-04T12:24:44.632Z,100916.00
2022-08-04T12:27:30.339Z,100907.00
2022-08-04T12:30:58.060Z,100898.00
2022-08-04T12:33:00.517Z,100904.00
2022-08-04T12:36:10.338Z,100905.00
2022-08-04T12:38:47.396Z,100904.00
2022-08-04T12:41:23.036Z,100904.00
2022-08-04T12:43:50.626Z,100905.00
2022-08-04T12:46:27.912Z,100897.00
2022-08-04T12:49:03.790Z,100885.00
2022-08-04T12:52:07.632Z,100890.00
2022-08-04T12:54:31.560Z,100894.00
2022-08-04T12:56:59.859Z,100881.00
2022-08-04T12:59:26.967Z,100882.00
2022-08-04T13:02:10.704Z,100877.00
2022-08-04T13:04:43.000Z,100876.00
2022-08-04T13:07:26.524Z,100870.00
2022-08-04T13:09:53.510Z,100873.00
2022-08-04T13:12:32.813Z,100875.00
2022-08-04T13:15:18.047Z,100872.00
2022-08-04T13:17:59.905Z,100880.00
2022-08-04T13:20:31.862Z,100879.00
2022-08-04T13:23:12.452Z,100868.00
2022-08-04T13:26:44.491Z,100863.00
2022-08-04T13:28:42.881Z,100860.00
2022-08-04T13:31:16.944Z,100861.00
2022-08-04T13:33:47.515Z,100854.00
2022-08-04T13:36:17.061Z,100853.00
2022-08-04T13:38:54.413Z,100854.00
2022-08-04T13:41:23.577Z,100849.00
2022-08-04T13:44:18.852Z,100848.00
2022-08-04T13:47:14.409Z,100848.00
2022-08-04T13:49:54.500Z,100851.00
2022-08-04T13:52:28.971Z,100844.00
2022-08-04T13:54:55.794Z,100844.00
2022-08-04T13:57:31.687Z,100837.00
2022-08-04T14:00:06.202Z,100838.00
2022-08-04T14:02:47.068Z,100836.00
2022-08-04T14:05:28.799Z,100826.00
2022-08-04T14:08:09.260Z,100827.00
2022-08-04T14:10:37.085Z,100819.00
2022-08-04T14:13:06.094Z,100811.00
2022-08-04T14:16:01.133Z,100818.00
2022-08-04T14:18:32.646Z,100818.00
2022-08-04T14:21:16.034Z,100809.00
2022-08-04T14:23:54.218Z,100805.00
2022-08-04T14:26:34.472Z,100805.00
2022-08-04T14:29:28.366Z,100809.00
2022-08-04T14:32:11.472Z,100813.00
2022-08-04T14:34:44.975Z,100806.00
2022-08-04T14:37:19.616Z,100804.00
2022-08-04T14:40:08.984Z,100809.00
2022-08-04T14:42:54.800Z,100800.00
2022-08-04T14:45:39.118Z,100795.00
2022-08-04T14:48:21.915Z,100790.00
2022-08-04T14:50:50.932Z,100797.00
2022-08-04T14:53:29.581Z,100796.00
2022-08-04T14:56:00.161Z,100797.00
2022-08-04T14:58:39.437Z,100793.00
2022-08-04T15:01:12.263Z,100784.00
2022-08-04T15:03:48.324Z,100781.00
2022-08-04T15:06:22.558Z,100783.00
2022-08-04T15:08:52.417Z,100785.00
2022-08-04T15:11:23.324Z,100785.00
2022-08-04T15:13:54.430Z,100779.00
2022-08-04T15:16:23.590Z,100784.00
2022-08-04T15:18:54.520Z,100774.00
2022-08-04T15:21:24.006Z,100780.00
2022-08-04T15:23:51.267Z,100783.00
2022-08-04T15:26:36.436Z,100774.00
2022-08-04T15:29:23.310Z,100773.00
2022-08-04T15:32:08.454Z,100764.00
2022-08-04T15:34:53.477Z,100760.00
2022-08-04T15:37:34.184Z,100763.00
2022-08-04T15:40:16.204Z,100754.00
2022-08-04T15:43:09.068Z,100763.00
2022-08-04T15:46:33.142Z,100759.00
2022-08-04T15:48:47.446Z,100756.00
2022-08-04T15:51:31.966Z,100762.00
2022-08-04T15:54:02.277Z,100755.00
2022-08-04T15:56:31.053Z,100750.00
2022-08-04T15:58:58.268Z,100751.00
2022-08-04T16:01:27.975Z,100752.00
2022-08-04T16:03:59.655Z,100752.00
2022-08-04T16:06:29.472Z,100756.00
2022-08-04T16:09:02.838Z,100749.00
2022-08-04T16:11:32.221Z,100745.00
2022-08-04T16:13:59.538Z,100743.00
2022-08-04T16:16:51.955Z,100741.00
2022-08-04T16:19:35.407Z,100740.00
2022-08-04T16:22:05.635Z,100747.00
2022-08-04T16:24:37.993Z,100742.00
2022-08-04T16:27:08.386Z,100735.00
2022-08-04T16:29:40.323Z,100741.00
2022-08-04T16:32:19.073Z,100732.00
2022-08-04T16:34:54.446Z,100741.00
2022-08-04T16:37:30.682Z,100741.00
2022-08-04T16:40:39.321Z,100730.00
2022-08-04T16:43:16.660Z,100727.00
2022-08-04T16:45:58.750Z,100747.00
2022-08-04T16:48:29.302Z,100733.00
2022-08-04T16:51:05.863Z,100725.00
2022-08-04T16:53:52.943Z,100726.00
2022-08-04T16:56:34.794Z,100725.00
2022-08-04T16:59:13.326Z,100734.00
2022-08-04T17:01:48.420Z,100738.00
2022-08-04T17:04:16.827Z,100733.00
2022-08-04T17:06:49.570Z,100733.00
2022-08-04T17:09:18.914Z,100730.00
2022-08-04T17:11:48.465Z,100730.00
2022-08-04T17:14:29.545Z,100736.00
2022-08-04T17:17:01.889Z,100734.00
2022-08-04T17:19:28.944Z,100731.00
2022-08-04T17:22:05.508Z,100731.00
2022-08-04T17:24:41.680Z,100742.00
2022-08-04T17:28:09.679Z,100726.00
2022-08-04T17:29:57.426Z,100733.00
2022-08-04T17:32:24.680Z,100725.00
2022-08-04T17:35:03.808Z,100731.00
2022-08-04T17:37:39.867Z,100724.00
2022-08-04T17:40:22.463Z,100736.00
2022-08-04T17:44:01.594Z,100735.00
2022-08-04T17:46:28.666Z,100735.00
2022-08-04T17:49:16.648Z,100738.00
2022-08-04T17:52:05.548Z,100734.00
2022-08-04T17:54:40.230Z,100734.00
2022-08-04T17:57:19.421Z,100743.00
2022-08-04T17:59:57.899Z,100740.00
2022-08-04T18:02:33.392Z,100730.00
2022-08-04T18:05:06.800Z,100729.00
2022-08-04T18:08:41.501Z,100725.00
2022-08-04T18:10:56.256Z,100728.00
2022-08-04T18:13:26.296Z,100722.00
2022-08-04T18:16:14.286Z,100725.00
2022-08-04T18:19:10.195Z,100721.00
2022-08-04T18:24:34.372Z,100711.00
2022-08-04T18:27:11.466Z,100710.00
2022-08-04T18:30:15.034Z,100709.00
2022-08-04T18:32:33.010Z,100720.00
2022-08-04T18:35:05.586Z,100712.00
2022-08-04T18:38:05.429Z,100717.00
2022-08-04T18:40:35.309Z,100712.00
2022-08-04T18:43:05.971Z,100713.00
2022-08-04T18:45:34.410Z,100711.00
2022-08-04T18:48:14.860Z,100722.00
2022-08-04T18:51:10.142Z,100729.00
2022-08-04T18:53:35.393Z,100725.00
2022-08-04T18:56:06.363Z,100731.00
2022-08-04T18:58:45.163Z,100724.00
2022-08-04T19:01:14.163Z,100733.00
2022-08-04T19:03:44.113Z,100732.00
2022-08-04T19:06:11.659Z,100730.00
2022-08-04T19:08:42.311Z,100722.00
2022-08-04T19:11:38.518Z,100733.00
2022-08-04T19:13:58.109Z,100731.00
2022-08-04T19:16:28.469Z,100726.00
2022-08-04T19:18:56.640Z,100731.00
2022-08-04T19:22:01.687Z,100719.00
2022-08-04T19:24:33.486Z,100729.00
2022-08-04T19:26:59.662Z,100725.00
2022-08-04T19:29:37.457Z,100735.00
2022-08-04T19:32:13.806Z,100733.00
2022-08-04T19:34:45.764Z,100742.00
2022-08-04T19:37:56.031Z,100730.00
2022-08-04T19:40:04.913Z,100745.00
2022-08-04T19:42:32.089Z,100737.00
2022-08-04T19:44:58.933Z,100742.00
2022-08-04T19:48:17.144Z,100738.00
2022-08-04T19:50:14.407Z,100734.00
2022-08-04T19:52:49.226Z,100733.00
2022-08-04T19:55:22.464Z,100738.00
2022-08-04T19:57:51.009Z,100736.00
2022-08-04T20:00:33.136Z,100723.00
2022-08-04T20:03:03.017Z,100731.00
2022-08-04T20:05:52.795Z,100734.00
2022-08-04T20:08:17.747Z,100729.00
2022-08-04T20:10:51.183Z,100729.00
2022-08-04T20:13:18.452Z,100727.00
2022-08-04T20:15:57.569Z,100717.00
2022-08-04T20:18:35.895Z,100722.00
2022-08-04T20:21:22.657Z,100732.00
2022-08-04T20:23:52.464Z,100720.00
2022-08-04T20:26:20.044Z,100732.00
2022-08-04T20:28:52.038Z,100729.00
2022-08-04T20:31:21.362Z,100729.00
2022-08-04T20:33:53.507Z,100724.00
2022-08-04T20:36:21.221Z,100722.00
2022-08-04T20:38:52.560Z,100723.00
2022-08-04T20:41:21.238Z,100722.00
2022-08-04T20:43:49.914Z,100731.00
2022-08-04T20:46:29.410Z,100728.00
2022-08-04T20:48:58.025Z,100729.00
2022-08-04T20:51:33.536Z,100729.00
2022-08-04T20:54:16.432Z,100728.00
2022-08-04T20:56:50.560Z,100733.00
2022-08-04T20:59:19.326Z,100724.00
2022-08-04T21:01:49.542Z,100716.00
2022-08-04T21:04:35.835Z,100716.00
2022-08-04T21:07:10.884Z,100723.00
2022-08-04T21:09:49.986Z,100719.00
2022-08-04T21:12:27.901Z,100717.00
2022-08-04T21:14:57.864Z,100726.00
2022-08-04T21:17:58.244Z,100736.00
2022-08-04T21:20:13.965Z,100745.00
2022-08-04T21:22:41.020Z,100755.00
2022-08-04T21:25:14.585Z,100762.00
2022-08-04T21:27:44.074Z,100761.00
2022-08-04T21:30:23.920Z,100758.00
2022-08-04T21:32:52.207Z,100759.00
2022-08-04T21:35:19.145Z,100750.00
2022-08-04T21:37:56.383Z,100743.00
2022-08-04T21:40:32.638Z,100743.00
2022-08-04T21:43:03.610Z,100740.00
2022-08-04T21:45:36.009Z,100755.00
2022-08-04T21:48:03.735Z,100757.00
2022-08-04T21:50:31.244Z,100752.00
2022-08-04T21:52:58.965Z,100756.00
2022-08-04T21:56:04.808Z,100758.00
2022-08-04T21:58:13.642Z,100746.00
2022-08-04T22:00:41.171Z,100746.00
2022-08-04T22:03:11.301Z,100751.00
2022-08-04T22:05:56.249Z,100751.00
2022-08-04T22:08:23.586Z,100747.00
2022-08-04T22:10:50.591Z,100755.00
2022-08-04T22:13:22.797Z,100752.00
2022-08-04T22:16:03.474Z,100755.00
2022-08-04T22:18:32.297Z,100748.00
2022-08-04T22:21:11.832Z,100750.00
2022-08-04T22:23:44.997Z,100755.00
2022-08-04T22:26:15.320Z,100746.00
2022-08-04T22:28:49.376Z,100746.00
2022-08-04T22:31:23.332Z,100748.00
2022-08-04T22:33:55.515Z,100738.00
2022-08-04T22:36:24.794Z,100747.00
2022-08-04T22:39:04.460Z,100741.00
2022-08-04T22:41:48.481Z,100741.00
2022-08-04T22:44:16.899Z,100737.00
2022-08-04T22:46:47.535Z,100738.00
2022-08-04T22:49:14.994Z,100736.00
2022-08-04T22:51:48.303Z,100738.00
2022-08-04T22:54:17.598Z,100735.00
2022-08-04T22:56:45.568Z,100738.00
2022-08-04T22:59:12.841Z,100734.00
2022-08-04T23:02:01.292Z,100750.00
2022-08-04T23:04:32.639Z,100741.00
2022-08-04T23:07:09.308Z,100738.00
2022-08-04T23:09:48.981Z,100744.00
2022-08-04T23:12:27.333Z,100738.00
2022-08-04T23:14:57.093Z,100731.00
2022-08-04T23:17:25.452Z,100725.00
2022-08-04T23:19:59.916Z,100728.00
2022-08-04T23:22:42.049Z,100725.00
2022-08-04T23:25:16.217Z,100725.00
2022-08-04T23:27:50.998Z,100728.00
2022-08-04T23:30:24.734Z,100711.00
2022-08-04T23:32:57.158Z,100717.00
2022-08-04T23:35:24.139Z,100719.00
2022-08-04T23:37:56.094Z,100720.00
2022-08-04T23:40:33.673Z,100713.00
2022-08-04T23:43:17.438Z,100713.00
2022-08-04T23:46:06.469Z,100711.00
2022-08-04T23:48:36.285Z,100708.00
2022-08-04T23:51:14.452Z,100710.00
2022-08-04T23:54:02.083Z,100710.00
2022-08-04T23:56:33.169Z,100707.00
2022-08-04T23:59:03.937Z,100709.00
